Ana Sayfa
METAR-TAF:

METAR-TAF

Havaalanları :

Clearfield-Lawrence Airport

Clearfield, Pensilvanya, Amerika Birleşik Devletleri

Enlem: 41-02-48N, Boylam: 078-24-42W, yükseklik: 462 m

Güncel hava durumu gözlemi

Rapor saat 17:54 UTC de 25 dakika önce yapıldı.
Rüzgar batı/güneybatıdan 8 kt
Sıcaklık -2°C
Nem 69%
Basınç 1021 hPa
Görüş mesafesi: 16.1 km
Açık gökyüzü

METAR: KFIG 071754Z AUTO 25008KT 10SM CLR M02/M07 A3015 RMK AO2 SLP227 60000 T10221072 11017 21039 58008

Saat: 13:19 (18:19 UTC)


TAF: eksik

4.000'den fazla havaalanı için hava durumu gözlemleri ve tahminleri (METAR ve TAF raporları).

Kullanılabilir istasyonlar harita üzerinde sarı ve kırmızı noktalarla gösterilir.

İstasyonun adını görmek için fareyi noktanın üzerinde gezdirin.

Sonrasında hava gözlem ve tahminlerini görmek için tıklayın.

Haritayı değiştirmek için: yaklaştırmak için siyah artı işaretli yeşil düğmeye ve uzaklaştırmak için de eksi işaretli düğmeye hızla tıklayın; bitişik haritalar için yeşil okları kullanın.


METAR-TAF: